createdAt,value
2018-05-10T02:17:01.063Z,0.1
2018-05-10T02:19:01.096Z,0.2
2018-05-10T02:20:01.066Z,0.3
2018-05-10T02:22:01.083Z,0.4
2018-05-10T02:23:06.250Z,0.5
2018-05-10T02:24:06.106Z,0.6
2018-05-10T02:25:01.066Z,0.7
2018-05-10T02:26:01.103Z,0.9
2018-05-10T02:27:01.095Z,1.0
2018-05-10T02:28:01.245Z,1.2
2018-05-10T02:29:01.099Z,1.4
2018-05-10T02:30:01.075Z,1.7
2018-05-10T02:31:01.102Z,1.9
2018-05-10T02:32:01.120Z,2.2
2018-05-10T02:33:01.329Z,2.5
2018-05-10T02:34:01.074Z,2.9
2018-05-10T02:35:01.070Z,3.3
2018-05-10T02:36:06.099Z,3.7
2018-05-10T02:37:01.135Z,4.3
2018-05-10T02:38:01.215Z,5.0
2018-05-10T02:39:01.101Z,5.7
2018-05-10T02:40:01.109Z,6.6
2018-05-10T02:41:01.104Z,7.6
2018-05-10T02:42:01.091Z,8.7
2018-05-10T02:43:01.402Z,10.0
2018-05-10T02:44:01.070Z,11.5
2018-05-10T02:45:01.099Z,13.1
2018-05-10T02:46:01.102Z,15.0
2018-05-10T02:47:01.111Z,17.1
2018-05-10T02:48:01.240Z,19.5
2018-05-10T02:49:01.110Z,22.3
2018-05-10T02:50:01.103Z,25.5
2018-05-10T02:51:06.113Z,29.3
2018-05-10T02:52:01.125Z,33.5
2018-05-10T02:53:01.281Z,38.3
2018-05-10T02:54:01.070Z,43.9
2018-05-10T02:55:01.073Z,50.1
2018-05-10T02:56:01.114Z,57.3
2018-05-10T02:57:01.111Z,65.5
2018-05-10T02:58:01.244Z,74.8
2018-05-10T02:59:01.113Z,85.3
2018-05-10T03:00:01.106Z,97.1
2018-05-10T03:01:01.105Z,110.4
2018-05-10T03:02:01.132Z,125.3
2018-05-10T03:03:01.249Z,142.0
2018-05-10T03:04:01.115Z,160.6
2018-05-10T03:05:06.083Z,181.3
2018-05-10T03:06:01.075Z,204.4
2018-05-10T03:07:01.105Z,230.1
2018-05-10T03:08:01.245Z,258.6
2018-05-10T03:09:01.104Z,290.1
2018-05-10T03:10:01.108Z,324.9
2018-05-10T03:11:01.118Z,363.2
2018-05-10T03:13:01.268Z,410.6
2018-05-10T03:14:01.064Z,462.1
2018-05-10T03:15:01.058Z,517.6
2018-05-10T03:16:01.060Z,577.4
2018-05-10T03:17:01.094Z,642.1
2018-05-10T03:18:01.269Z,712.4
2018-05-10T03:19:01.092Z,788.7
2018-05-10T03:20:01.099Z,871.7
2018-05-10T03:21:01.066Z,961.4
2018-05-10T03:22:01.088Z,1057.9
2018-05-10T03:23:01.275Z,1161.0
2018-05-10T03:24:01.096Z,1270.7
2018-05-10T03:25:01.061Z,1386.8
2018-05-10T03:26:01.088Z,1509.1
2018-05-10T03:27:01.064Z,1637.4
2018-05-10T03:28:01.312Z,1766.5
2018-05-10T03:29:01.060Z,1902.1
2018-05-10T03:30:01.096Z,2044.7
2018-05-10T03:31:01.104Z,2194.2
2018-05-10T03:32:01.061Z,2350.1
2018-05-10T03:33:01.336Z,2512.4
2018-05-10T03:34:01.099Z,2681.3
2018-05-10T03:35:01.099Z,2857.2
2018-05-10T03:36:01.062Z,3040.7
2018-05-10T03:37:01.062Z,3231.6
2018-05-10T03:38:01.277Z,3431.5
2018-05-10T03:39:01.106Z,3640.0
2018-05-10T03:40:01.104Z,3857.5
2018-05-10T03:41:01.101Z,4086.3
2018-05-10T03:42:01.094Z,4330.2
2018-05-10T03:43:01.233Z,4593.7
2018-05-10T03:44:01.120Z,4879.5
2018-05-10T03:45:06.099Z,5188.9
2018-05-10T03:46:01.097Z,5520.3
2018-05-10T03:47:01.099Z,5868.7
2018-05-10T03:48:01.210Z,6230.4
2018-05-10T03:49:01.126Z,6602.6
2018-05-10T03:50:01.096Z,6981.9
2018-05-10T03:51:01.105Z,7367.0
2018-05-10T03:52:01.067Z,7755.9
2018-05-10T03:53:01.251Z,8141.2
2018-05-10T03:54:01.137Z,8516.6
2018-05-10T03:55:01.196Z,8876.0
2018-05-10T03:56:01.098Z,9218.2
2018-05-10T03:57:01.069Z,9549.6
2018-05-10T03:58:01.261Z,9874.7
2018-05-10T03:59:01.130Z,10192.5
2018-05-10T04:00:01.066Z,10500.5
2018-05-10T04:01:01.069Z,10798.3
2018-05-10T04:02:01.062Z,11089.3
2018-05-10T04:03:01.244Z,11370.9
2018-05-10T04:04:01.089Z,11637.3
2018-05-10T04:05:01.120Z,11891.2
2018-05-10T04:06:01.141Z,12131.9
2018-05-10T04:07:01.067Z,12354.3
2018-05-10T04:08:06.273Z,12562.5
2018-05-10T04:09:01.099Z,12764.6
2018-05-10T04:10:01.103Z,12966.5
2018-05-10T04:11:06.077Z,13174.9
2018-05-10T04:12:01.067Z,13382.3
2018-05-10T04:13:01.308Z,13583.9
2018-05-10T04:14:01.135Z,13774.1
2018-05-10T04:15:01.073Z,13951.9
2018-05-10T04:16:01.101Z,14116.7
2018-05-10T04:17:01.073Z,14265.8
2018-05-10T04:18:01.226Z,14398.3
2018-05-10T04:19:01.146Z,14520.7
2018-05-10T04:20:01.121Z,14628.1
2018-05-10T04:21:01.138Z,14725.1
2018-05-10T04:22:01.104Z,14825.5
2018-05-10T04:23:01.255Z,14936.0
2018-05-10T04:24:01.113Z,15060.9
2018-05-10T04:25:01.071Z,15216.1
2018-05-10T04:26:01.133Z,15405.9
2018-05-10T04:27:01.103Z,15609.9
2018-05-10T04:28:02.312Z,15823.1
2018-05-10T04:29:01.107Z,16058.5
2018-05-10T04:30:01.100Z,16335.1
2018-05-10T04:31:01.107Z,16687.7
2018-05-10T04:32:01.108Z,17079.5
2018-05-10T04:33:01.252Z,17548.7
2018-05-10T04:35:01.093Z,18097.0
2018-05-10T04:36:01.111Z,18674.3
2018-05-10T04:37:01.088Z,19278.7
2018-05-10T04:38:01.095Z,19918.7
2018-05-10T04:39:01.291Z,20580.5
2018-05-10T04:40:01.089Z,21251.7
2018-05-10T04:41:01.113Z,21907.8
2018-05-10T04:42:02.118Z,22525.8
2018-05-10T04:43:01.062Z,23133.6
2018-05-10T04:44:01.205Z,23696.1
2018-05-10T04:45:06.108Z,24212.1
2018-05-10T04:46:01.128Z,24659.9
2018-05-10T04:47:01.099Z,25062.6
2018-05-10T04:48:01.101Z,25507.5
2018-05-10T04:49:01.245Z,25886.2
2018-05-10T04:50:01.097Z,26250.2
2018-05-10T04:51:01.117Z,26655.0
2018-05-10T04:52:01.132Z,27099.5
2018-05-10T04:53:01.096Z,27561.6
2018-05-10T04:54:01.206Z,28039.5
2018-05-10T04:55:01.099Z,28529.4
2018-05-10T04:56:01.096Z,29032.5
2018-05-10T04:57:01.106Z,29561.9
2018-05-10T04:58:01.125Z,30105.5
2018-05-10T04:59:01.244Z,30696.3
2018-05-10T05:00:01.096Z,31329.2
2018-05-10T05:01:01.067Z,32014.3
2018-05-10T05:02:01.132Z,32706.0
2018-05-10T05:03:01.114Z,33367.7
2018-05-10T05:04:01.245Z,34087.1
2018-05-10T05:05:01.069Z,34817.7
2018-05-10T05:06:01.067Z,35562.0
2018-05-10T05:07:01.090Z,36329.5
2018-05-10T05:08:01.105Z,37130.3
2018-05-10T05:09:01.309Z,37973.4
2018-05-10T05:10:01.068Z,38858.2
2018-05-10T05:11:01.069Z,39774.3
2018-05-10T05:12:01.147Z,40699.8
2018-05-10T05:13:01.139Z,41618.8
2018-05-10T05:14:01.248Z,42521.7
2018-05-10T05:15:01.071Z,43392.5
2018-05-10T05:16:01.072Z,44222.9
2018-05-10T05:17:01.108Z,45017.7
2018-05-10T05:18:01.148Z,45786.7
2018-05-10T05:19:01.255Z,46540.1
2018-05-10T05:20:01.104Z,47275.6
2018-05-10T05:21:01.104Z,47984.2
2018-05-10T05:22:01.105Z,48670.5
2018-05-10T05:23:01.095Z,49366.8
2018-05-10T05:24:01.252Z,50104.2
2018-05-10T05:25:01.072Z,50927.7
2018-05-10T05:26:01.077Z,51876.4
2018-05-10T05:28:01.086Z,53039.1
2018-05-10T05:29:01.205Z,54175.9
2018-05-10T05:30:01.099Z,55299.5
2018-05-10T05:31:01.056Z,56421.7
2018-05-10T05:32:01.088Z,57545.3
2018-05-10T05:33:01.056Z,58655.5
2018-05-10T05:34:01.232Z,59732.5
2018-05-10T05:35:01.088Z,60754.9
2018-05-10T05:36:01.059Z,61719.9
2018-05-10T05:37:01.089Z,62632.7
2018-05-10T05:38:01.116Z,63478.7
2018-05-10T05:39:01.242Z,64222.0
2018-05-10T05:40:01.089Z,64833.1
2018-05-10T05:41:01.178Z,65278.1
2018-05-10T05:42:01.098Z,65535.0
2018-05-10T05:45:01.097Z,65535.0
2018-05-10T06:00:01.105Z,65535.0
2018-05-10T06:15:01.099Z,65535.0
2018-05-10T06:30:01.074Z,65535.0
2018-05-10T06:45:01.108Z,65535.0
2018-05-10T07:00:01.113Z,65535.0
2018-05-10T07:15:01.098Z,65535.0
2018-05-10T07:30:01.069Z,65535.0
2018-05-10T07:45:01.239Z,65535.0
2018-05-10T08:00:02.280Z,65535.0
2018-05-10T08:15:06.410Z,65535.0
2018-05-10T08:30:01.310Z,65535.0
2018-05-10T08:45:01.352Z,65535.0
2018-05-10T09:00:06.507Z,65535.0
2018-05-10T09:15:06.304Z,65535.0
2018-05-10T09:30:02.265Z,65535.0
2018-05-10T09:45:01.245Z,65535.0
2018-05-10T10:00:06.261Z,65535.0
2018-05-10T10:15:01.294Z,65535.0
2018-05-10T10:30:02.334Z,65535.0
2018-05-10T10:45:01.222Z,65535.0
2018-05-10T11:00:06.445Z,65535.0
2018-05-10T11:15:01.394Z,65535.0
2018-05-10T11:30:06.317Z,65535.0
2018-05-10T11:45:02.274Z,65535.0
2018-05-10T12:00:06.324Z,65535.0
2018-05-10T12:07:01.105Z,65363.4
2018-05-10T12:08:01.108Z,64284.3
2018-05-10T12:09:01.107Z,62429.9
2018-05-10T12:10:01.274Z,59880.7
2018-05-10T12:11:01.106Z,56809.7
2018-05-10T12:13:01.056Z,53009.3
2018-05-10T12:14:01.088Z,48984.3
2018-05-10T12:15:01.262Z,44843.0
2018-05-10T12:16:01.058Z,40632.1
2018-05-10T12:17:01.095Z,36376.9
2018-05-10T12:18:01.057Z,32100.7
2018-05-10T12:19:01.091Z,27825.1
2018-05-10T12:20:01.311Z,23572.7
2018-05-10T12:21:01.092Z,19365.9
2018-05-10T12:22:01.092Z,15210.1
2018-05-10T12:23:01.062Z,11254.5
2018-05-10T12:24:01.061Z,8223.1
2018-05-10T12:25:01.271Z,5984.9
2018-05-10T12:26:01.095Z,4484.4
2018-05-10T12:27:01.063Z,3554.6
2018-05-10T12:28:01.059Z,3366.1
2018-05-10T12:29:01.066Z,3400.8
2018-05-10T12:30:01.240Z,3548.8
2018-05-10T12:31:01.143Z,3768.8
2018-05-10T12:32:01.057Z,4037.7
2018-05-10T12:33:01.094Z,4318.9
2018-05-10T12:34:01.094Z,4590.3
2018-05-10T12:35:01.243Z,4829.5
2018-05-10T12:36:01.125Z,5033.1
2018-05-10T12:37:01.065Z,5274.3
2018-05-10T12:38:01.095Z,5695.2
2018-05-10T12:39:01.096Z,6329.7
2018-05-10T12:40:01.307Z,7113.0
2018-05-10T12:41:01.129Z,7964.5
2018-05-10T12:42:01.063Z,8843.3
2018-05-10T12:43:01.092Z,9765.2
2018-05-10T12:44:01.062Z,10746.8
2018-05-10T12:45:01.243Z,11783.6
2018-05-10T12:46:01.087Z,12858.6
2018-05-10T12:47:01.091Z,13944.9
2018-05-10T12:48:01.093Z,15055.9
2018-05-10T12:49:01.092Z,16206.4
2018-05-10T12:50:01.204Z,17392.5
2018-05-10T12:51:01.121Z,18598.8
2018-05-10T12:52:01.095Z,19750.3
2018-05-10T12:53:01.105Z,20805.7
2018-05-10T12:54:01.098Z,21820.5
2018-05-10T12:55:01.205Z,22929.8
2018-05-10T12:56:01.166Z,24191.4
2018-05-10T12:57:01.130Z,25607.7
2018-05-10T12:58:01.091Z,27155.7
2018-05-10T12:59:01.060Z,28793.2
2018-05-10T13:00:01.205Z,30509.9
2018-05-10T13:01:01.092Z,32292.6
2018-05-10T13:02:01.119Z,34146.7
2018-05-10T13:03:01.100Z,36055.4
2018-05-10T13:04:01.064Z,37919.3
2018-05-10T13:05:01.199Z,39628.7
2018-05-10T13:06:01.097Z,41177.3
2018-05-10T13:07:01.091Z,42524.5
2018-05-10T13:08:01.098Z,43561.4
2018-05-10T13:09:01.102Z,44236.1
2018-05-10T13:10:01.256Z,44482.7
2018-05-10T13:12:01.076Z,44135.9
2018-05-10T13:13:01.082Z,43368.9
2018-05-10T13:14:01.081Z,42239.5
2018-05-10T13:15:01.083Z,40816.4
2018-05-10T13:16:01.282Z,39147.1
2018-05-10T13:17:01.083Z,37290.1
2018-05-10T13:18:01.075Z,35295.9
2018-05-10T13:19:01.047Z,33212.7
2018-05-10T13:20:01.089Z,31143.6
2018-05-10T13:21:01.292Z,29216.9
2018-05-10T13:22:01.080Z,27445.4
2018-05-10T13:23:01.122Z,25874.3
2018-05-10T13:24:01.083Z,24548.8
2018-05-10T13:25:01.051Z,23467.5
2018-05-10T13:26:01.197Z,22683.5
2018-05-10T13:27:01.088Z,22379.9
2018-05-10T13:28:01.081Z,22402.9
2018-05-10T13:29:01.127Z,22758.4
2018-05-10T13:30:01.083Z,23409.2
2018-05-10T13:31:01.213Z,24320.1
2018-05-10T13:32:01.084Z,25446.0
2018-05-10T13:33:01.083Z,26767.6
2018-05-10T13:34:01.060Z,28277.6
2018-05-10T13:35:01.054Z,29983.1
2018-05-10T13:36:01.242Z,31876.8
2018-05-10T13:37:01.095Z,33958.3
2018-05-10T13:38:01.107Z,36153.7
2018-05-10T13:39:01.089Z,38351.7
2018-05-10T13:40:01.095Z,40500.7
2018-05-10T13:41:01.278Z,42386.8
2018-05-10T13:42:01.089Z,43856.8
2018-05-10T13:43:01.090Z,44969.6
2018-05-10T13:44:01.060Z,45878.0
2018-05-10T13:45:01.090Z,46451.5
2018-05-10T13:46:01.240Z,46472.5
2018-05-10T13:47:01.096Z,46092.0
2018-05-10T13:48:01.058Z,45457.7
2018-05-10T13:49:01.056Z,44650.7
2018-05-10T13:50:01.095Z,43735.8
2018-05-10T13:51:01.280Z,42714.4
2018-05-10T13:52:01.088Z,41550.8
2018-05-10T13:53:01.113Z,40227.9
2018-05-10T13:54:01.113Z,38779.4
2018-05-10T13:55:01.090Z,37218.4
2018-05-10T13:56:01.238Z,35692.3
2018-05-10T13:57:01.099Z,34330.7
2018-05-10T13:58:01.062Z,33077.2
2018-05-10T13:59:01.143Z,31755.7
2018-05-10T14:00:01.067Z,30525.3
2018-05-10T14:01:01.244Z,29607.5
2018-05-10T14:02:01.102Z,28862.8
2018-05-10T14:03:01.061Z,28138.2
2018-05-10T14:04:01.133Z,27331.6
2018-05-10T14:05:01.106Z,26341.2
2018-05-10T14:06:01.245Z,25167.1
2018-05-10T14:07:01.104Z,23867.0
2018-05-10T14:08:01.068Z,22527.5
2018-05-10T14:09:01.131Z,21199.3
2018-05-10T14:10:01.106Z,19876.0
2018-05-10T14:12:01.242Z,18521.5
2018-05-10T14:13:01.082Z,17227.1
2018-05-10T14:14:01.051Z,16009.9
2018-05-10T14:15:01.085Z,14881.1
2018-05-10T14:16:01.086Z,13833.0
2018-05-10T14:17:01.227Z,12875.9
2018-05-10T14:18:01.091Z,12011.7
2018-05-10T14:19:01.085Z,11234.3
2018-05-10T14:20:01.081Z,10547.9
2018-05-10T14:21:01.084Z,9969.8
2018-05-10T14:22:01.274Z,9485.2
2018-05-10T14:23:01.086Z,9059.5
2018-05-10T14:24:01.091Z,8690.5
2018-05-10T14:25:01.089Z,8394.9
2018-05-10T14:26:01.089Z,8197.7
2018-05-10T14:27:01.217Z,8139.3
2018-05-10T14:28:01.059Z,8135.2
2018-05-10T14:29:01.061Z,8181.3
2018-05-10T14:30:01.057Z,8262.9
2018-05-10T14:31:01.069Z,8376.5
2018-05-10T14:32:01.247Z,8516.6
2018-05-10T14:33:01.138Z,8675.0
2018-05-10T14:34:01.097Z,8848.6
2018-05-10T14:35:01.101Z,9032.5
2018-05-10T14:36:01.095Z,9228.4
2018-05-10T14:37:01.252Z,9451.8
2018-05-10T14:38:01.130Z,9701.8
2018-05-10T14:39:06.071Z,9972.5
2018-05-10T14:40:01.064Z,10260.2
2018-05-10T14:41:01.099Z,10558.1
2018-05-10T14:42:01.221Z,10870.4
2018-05-10T14:43:06.069Z,11205.6
2018-05-10T14:44:01.100Z,11559.9
2018-05-10T14:45:01.082Z,11952.4
2018-05-10T14:46:01.129Z,12378.6
2018-05-10T14:47:01.241Z,12831.6
2018-05-10T14:48:01.065Z,13316.9
2018-05-10T14:49:01.099Z,13841.0
2018-05-10T14:50:01.064Z,14411.9
2018-05-10T14:51:01.100Z,15040.9
2018-05-10T14:52:01.216Z,15734.3
2018-05-10T14:53:01.098Z,16526.1
2018-05-10T14:54:02.157Z,17454.4
2018-05-10T14:55:01.072Z,18556.6
2018-05-10T14:56:01.095Z,19873.4
2018-05-10T14:57:01.220Z,21448.7
2018-05-10T14:58:01.104Z,23310.0
2018-05-10T14:59:01.100Z,25500.7
2018-05-10T15:00:01.069Z,28022.2
2018-05-10T15:01:01.125Z,30836.9
2018-05-10T15:02:01.253Z,33492.5
2018-05-10T15:04:01.052Z,36702.4
2018-05-10T15:05:01.085Z,39859.6
2018-05-10T15:06:01.090Z,42953.2
2018-05-10T15:07:01.088Z,45965.1
2018-05-10T15:08:01.267Z,48878.9
2018-05-10T15:09:01.052Z,51665.1
2018-05-10T15:10:01.086Z,54289.1
2018-05-10T15:11:01.054Z,56712.9
2018-05-10T15:12:01.058Z,58898.7
2018-05-10T15:13:01.270Z,60801.1
2018-05-10T15:14:01.092Z,62381.9
2018-05-10T15:15:01.088Z,63494.5
2018-05-10T15:16:01.056Z,63615.4
2018-05-10T15:17:01.090Z,62722.3
2018-05-10T15:18:01.247Z,61323.9
2018-05-10T15:19:01.094Z,58821.7
2018-05-10T15:20:01.090Z,55914.7
2018-05-10T15:21:01.096Z,52721.7
2018-05-10T15:22:01.062Z,49306.1
2018-05-10T15:23:01.276Z,45735.5
2018-05-10T15:24:01.061Z,42166.7
2018-05-10T15:25:01.098Z,38888.9
2018-05-10T15:26:01.061Z,36215.1
2018-05-10T15:27:01.064Z,34137.8
2018-05-10T15:28:01.339Z,32336.3
2018-05-10T15:29:01.140Z,30758.6
2018-05-10T15:30:01.066Z,29536.8
2018-05-10T15:31:01.099Z,28880.3
2018-05-10T15:32:01.072Z,28581.7
2018-05-10T15:33:01.238Z,28476.3
2018-05-10T15:34:01.098Z,28612.3
2018-05-10T15:35:01.100Z,29046.1
2018-05-10T15:36:06.096Z,29606.7
2018-05-10T15:37:01.125Z,30267.1
2018-05-10T15:38:01.219Z,31053.4
2018-05-10T15:39:01.126Z,31804.8
2018-05-10T15:40:01.072Z,32148.6
2018-05-10T15:41:01.104Z,31711.5
2018-05-10T15:42:06.072Z,30580.5
2018-05-10T15:43:02.279Z,29215.7
2018-05-10T15:44:01.069Z,27787.2
2018-05-10T15:45:01.144Z,26332.4
2018-05-10T15:46:01.067Z,25137.9
2018-05-10T15:47:01.127Z,24438.6
2018-05-10T15:48:01.251Z,24319.9
2018-05-10T15:49:01.107Z,24572.8
2018-05-10T15:50:01.070Z,25005.9
2018-05-10T15:51:01.076Z,25637.2
2018-05-10T15:52:01.133Z,26398.5
2018-05-10T15:53:01.217Z,27183.7
2018-05-10T15:54:01.103Z,27994.9
2018-05-10T15:55:01.074Z,28888.3
2018-05-10T15:56:01.111Z,29926.4
2018-05-10T15:57:01.147Z,30991.7
2018-05-10T15:58:01.226Z,31859.1
2018-05-10T16:00:01.089Z,31995.1
2018-05-10T16:01:01.090Z,31712.7
2018-05-10T16:02:01.091Z,31400.1
2018-05-10T16:03:01.087Z,31152.2
2018-05-10T16:04:06.229Z,30759.1
2018-05-10T16:05:01.186Z,30223.5
2018-05-10T16:06:01.063Z,29564.6
2018-05-10T16:07:01.125Z,28761.7
2018-05-10T16:08:01.095Z,27949.5
2018-05-10T16:09:01.279Z,27116.5
2018-05-10T16:10:01.096Z,26281.3
2018-05-10T16:11:01.099Z,25503.1
2018-05-10T16:12:01.071Z,24805.8
2018-05-10T16:13:01.087Z,24229.0
2018-05-10T16:14:01.268Z,23872.9
2018-05-10T16:15:01.059Z,24154.1
2018-05-10T16:16:01.064Z,24712.1
2018-05-10T16:17:01.062Z,25167.7
2018-05-10T16:18:01.065Z,25461.1
2018-05-10T16:19:01.274Z,25837.5
2018-05-10T16:20:01.096Z,26320.2
2018-05-10T16:21:01.057Z,26904.2
2018-05-10T16:22:01.065Z,27647.9
2018-05-10T16:23:01.063Z,28423.6
2018-05-10T16:24:01.257Z,29250.6
2018-05-10T16:25:01.096Z,30116.5
2018-05-10T16:26:01.071Z,31000.2
2018-05-10T16:27:01.063Z,31881.7
2018-05-10T16:28:01.095Z,32781.6
2018-05-10T16:29:01.401Z,33697.1
2018-05-10T16:30:01.101Z,34632.8
2018-05-10T16:31:01.100Z,35581.9
2018-05-10T16:32:01.101Z,36550.6
2018-05-10T16:33:01.099Z,37512.6
2018-05-10T16:34:01.234Z,38411.9
2018-05-10T16:35:01.076Z,39179.7
2018-05-10T16:36:01.105Z,39697.5
2018-05-10T16:37:01.098Z,39938.7
2018-05-10T16:38:01.072Z,40026.7
2018-05-10T16:39:01.286Z,40056.3
2018-05-10T16:40:01.094Z,40052.2
2018-05-10T16:41:01.127Z,40004.2
2018-05-10T16:42:01.074Z,39891.1
2018-05-10T16:43:01.102Z,39699.1
2018-05-10T16:44:01.215Z,39436.3
2018-05-10T16:45:01.103Z,39173.8
2018-05-10T16:46:01.125Z,38904.1
2018-05-10T16:47:01.097Z,38534.2
2018-05-10T16:48:01.063Z,38116.3
2018-05-10T16:49:01.211Z,37770.3
2018-05-10T16:50:01.099Z,37441.1
2018-05-10T16:51:01.128Z,37314.0
2018-05-10T16:52:01.068Z,37376.4
2018-05-10T16:53:01.109Z,37320.1
2018-05-10T16:54:06.245Z,37039.9
2018-05-10T16:55:01.069Z,36571.0
2018-05-10T16:56:01.100Z,36003.7
2018-05-10T16:57:01.064Z,35500.9
2018-05-10T16:58:01.096Z,35015.5
2018-05-10T16:59:06.323Z,34502.5
2018-05-10T17:00:01.094Z,33952.9
2018-05-10T17:01:01.072Z,33339.5
2018-05-10T17:02:01.070Z,32685.2
2018-05-10T17:03:01.070Z,31966.8
2018-05-10T17:04:01.266Z,31120.5
2018-05-10T17:05:01.098Z,30352.3
2018-05-10T17:06:01.101Z,29686.1
2018-05-10T17:07:02.135Z,29126.7
2018-05-10T17:08:01.109Z,28910.5
2018-05-10T17:09:01.269Z,29070.7
2018-05-10T17:10:01.112Z,29467.3
2018-05-10T17:12:01.131Z,29625.1
2018-05-10T17:13:01.104Z,29649.6
2018-05-10T17:14:01.239Z,29564.8
2018-05-10T17:15:01.094Z,29427.7
2018-05-10T17:16:01.097Z,28940.9
2018-05-10T17:17:01.095Z,28230.7
2018-05-10T17:18:01.102Z,27383.1
2018-05-10T17:19:01.243Z,26596.1
2018-05-10T17:20:01.097Z,25798.5
2018-05-10T17:21:01.098Z,24885.9
2018-05-10T17:22:01.097Z,23913.6
2018-05-10T17:23:01.060Z,22864.3
2018-05-10T17:24:01.211Z,21662.6
2018-05-10T17:25:01.123Z,20367.1
2018-05-10T17:26:01.097Z,19020.9
2018-05-10T17:27:01.064Z,18006.8
2018-05-10T17:28:01.097Z,17070.8
2018-05-10T17:29:01.243Z,16221.5
2018-05-10T17:30:01.099Z,15411.5
2018-05-10T17:31:01.107Z,14882.8
2018-05-10T17:32:01.098Z,14513.7
2018-05-10T17:33:01.104Z,14323.0
2018-05-10T17:34:01.344Z,14190.1
2018-05-10T17:35:01.097Z,14108.5
2018-05-10T17:36:01.129Z,14198.1
2018-05-10T17:37:01.096Z,14087.9
2018-05-10T17:38:01.065Z,13885.6
2018-05-10T17:39:01.214Z,13759.7
2018-05-10T17:40:01.099Z,13646.5
2018-05-10T17:41:01.104Z,13556.6
2018-05-10T17:42:01.065Z,13425.0
2018-05-10T17:43:01.102Z,13214.8
2018-05-10T17:44:01.246Z,12956.1
2018-05-10T17:45:01.067Z,12696.1
2018-05-10T17:46:01.130Z,12393.9
2018-05-10T17:47:01.069Z,12155.6
2018-05-10T17:48:01.102Z,11923.9
2018-05-10T17:49:01.223Z,11554.5
2018-05-10T17:50:01.072Z,11195.3
2018-05-10T17:51:01.067Z,10778.2
2018-05-10T17:52:01.070Z,10548.8
2018-05-10T17:53:01.071Z,10466.6
2018-05-10T17:54:01.214Z,10406.1
2018-05-10T17:55:01.100Z,10339.3
2018-05-10T17:56:01.079Z,10264.6
2018-05-10T17:57:01.074Z,10227.3
2018-05-10T17:58:01.075Z,10249.1
2018-05-10T17:59:01.256Z,10332.3
2018-05-10T18:00:01.112Z,10444.1
2018-05-10T18:01:01.179Z,10616.9
2018-05-10T18:02:06.109Z,10760.5
2018-05-10T18:03:01.077Z,10888.8
2018-05-10T18:04:02.385Z,11048.9
2018-05-10T18:05:01.110Z,11156.7
2018-05-10T18:06:01.137Z,11194.6
2018-05-10T18:07:01.110Z,11172.6
2018-05-10T18:08:01.075Z,11082.9
2018-05-10T18:10:02.353Z,10947.0
2018-05-10T18:11:01.119Z,10800.1
2018-05-10T18:12:01.090Z,10678.8
2018-05-10T18:13:01.093Z,10606.4
2018-05-10T18:14:01.254Z,10597.0
2018-05-10T18:15:01.365Z,10612.1
2018-05-10T18:16:01.126Z,10637.5
2018-05-10T18:17:01.093Z,10643.1
2018-05-10T18:18:01.093Z,10619.7
2018-05-10T18:19:01.096Z,10580.1
2018-05-10T18:20:01.250Z,10536.8
2018-05-10T18:21:01.121Z,10498.8
2018-05-10T18:22:01.093Z,10484.5
2018-05-10T18:23:01.130Z,10488.7
2018-05-10T18:24:01.097Z,10494.4
2018-05-10T18:25:01.304Z,10483.8
2018-05-10T18:26:01.141Z,10434.2
2018-05-10T18:27:01.103Z,10341.5
2018-05-10T18:28:01.067Z,10217.3
2018-05-10T18:29:01.098Z,10067.4
2018-05-10T18:30:01.219Z,9893.4
2018-05-10T18:31:01.096Z,9699.6
2018-05-10T18:32:01.099Z,9503.1
2018-05-10T18:33:01.102Z,9312.1
2018-05-10T18:34:02.135Z,9121.6
2018-05-10T18:35:01.215Z,8928.7
2018-05-10T18:36:01.125Z,8730.5
2018-05-10T18:37:01.068Z,8521.7
2018-05-10T18:38:01.068Z,8305.8
2018-05-10T18:39:01.069Z,8089.0
2018-05-10T18:40:01.216Z,7874.3
2018-05-10T18:41:01.097Z,7663.7
2018-05-10T18:42:01.099Z,7448.9
2018-05-10T18:43:01.069Z,7217.6
2018-05-10T18:44:01.068Z,6968.3
2018-05-10T18:45:01.216Z,6714.5
2018-05-10T18:46:01.131Z,6466.9
2018-05-10T18:47:01.101Z,6231.7
2018-05-10T18:48:01.099Z,6011.7
2018-05-10T18:49:01.074Z,5806.2
2018-05-10T18:50:01.287Z,5619.7
2018-05-10T18:51:01.110Z,5444.7
2018-05-10T18:52:01.102Z,5277.3
2018-05-10T18:53:01.108Z,5111.4
2018-05-10T18:54:01.078Z,4944.3
2018-05-10T18:55:01.389Z,4777.6
2018-05-10T18:56:01.102Z,4613.4
2018-05-10T18:57:01.108Z,4448.8
2018-05-10T18:58:01.134Z,4277.8
2018-05-10T18:59:01.072Z,4095.6
2018-05-10T19:00:01.256Z,3901.7
2018-05-10T19:01:01.110Z,3699.3
2018-05-10T19:03:01.133Z,3483.6
2018-05-10T19:04:01.072Z,3269.1
2018-05-10T19:05:01.216Z,3057.3
2018-05-10T19:06:01.095Z,2842.1
2018-05-10T19:07:01.064Z,2628.8
2018-05-10T19:08:01.059Z,2417.9
2018-05-10T19:09:01.104Z,2213.0
2018-05-10T19:10:01.235Z,2018.4
2018-05-10T19:11:01.096Z,1834.4
2018-05-10T19:12:01.088Z,1661.3
2018-05-10T19:13:01.090Z,1502.5
2018-05-10T19:14:01.091Z,1363.7
2018-05-10T19:15:01.211Z,1245.9
2018-05-10T19:16:01.097Z,1145.0
2018-05-10T19:17:01.097Z,1056.5
2018-05-10T19:18:01.096Z,989.2
2018-05-10T19:19:01.059Z,928.1
2018-05-10T19:20:01.270Z,873.5
2018-05-10T19:21:01.119Z,826.4
2018-05-10T19:22:01.059Z,787.3
2018-05-10T19:23:01.090Z,754.5
2018-05-10T19:24:06.105Z,725.9
2018-05-10T19:25:01.240Z,699.1
2018-05-10T19:26:01.063Z,671.7
2018-05-10T19:27:01.140Z,641.9
2018-05-10T19:28:01.098Z,608.7
2018-05-10T19:29:01.097Z,572.2
2018-05-10T19:30:01.212Z,533.6
2018-05-10T19:31:01.101Z,494.5
2018-05-10T19:32:01.130Z,457.2
2018-05-10T19:33:01.060Z,420.1
2018-05-10T19:34:01.067Z,385.1
2018-05-10T19:35:01.242Z,351.7
2018-05-10T19:36:01.094Z,319.8
2018-05-10T19:37:01.132Z,288.8
2018-05-10T19:38:01.097Z,259.8
2018-05-10T19:39:01.108Z,233.5
2018-05-10T19:40:01.303Z,209.9
2018-05-10T19:41:01.069Z,189.3
2018-05-10T19:42:01.117Z,171.4
2018-05-10T19:43:01.096Z,155.6
2018-05-10T19:44:01.107Z,141.5
2018-05-10T19:45:01.218Z,128.6
2018-05-10T19:46:01.103Z,117.0
2018-05-10T19:47:01.078Z,106.5
2018-05-10T19:48:01.114Z,97.2
2018-05-10T19:50:02.297Z,88.6
2018-05-10T19:51:01.119Z,80.7
2018-05-10T19:52:01.058Z,73.6
2018-05-10T19:53:01.086Z,67.1
2018-05-10T19:54:01.090Z,60.9
2018-05-10T19:55:06.233Z,55.2
2018-05-10T19:56:01.089Z,49.8
2018-05-10T19:57:01.142Z,44.7
2018-05-10T19:58:01.095Z,39.8
2018-05-10T19:59:01.057Z,35.3
2018-05-10T20:00:01.219Z,31.0
2018-05-10T20:01:01.095Z,27.1
2018-05-10T20:02:01.059Z,23.6
2018-05-10T20:03:01.058Z,20.5
2018-05-10T20:04:01.093Z,17.7
2018-05-10T20:05:01.293Z,15.5
2018-05-10T20:06:01.095Z,13.6
2018-05-10T20:07:01.123Z,11.9
2018-05-10T20:08:01.070Z,10.5
2018-05-10T20:09:01.074Z,9.2
2018-05-10T20:10:01.263Z,8.1
2018-05-10T20:11:01.096Z,7.1
2018-05-10T20:12:01.119Z,6.3
2018-05-10T20:13:01.094Z,5.5
2018-05-10T20:14:01.097Z,4.9
2018-05-10T20:15:01.229Z,4.3
2018-05-10T20:16:01.118Z,3.8
2018-05-10T20:17:01.182Z,3.3
2018-05-10T20:18:01.082Z,2.9
2018-05-10T20:19:01.101Z,2.6
2018-05-10T20:20:01.240Z,2.3
2018-05-10T20:21:01.104Z,2.1
2018-05-10T20:22:01.071Z,1.9
2018-05-10T20:23:01.074Z,1.7
2018-05-10T20:24:01.112Z,1.5
2018-05-10T20:25:01.255Z,1.4
2018-05-10T20:26:01.090Z,1.2
2018-05-10T20:27:01.133Z,1.1
2018-05-10T20:28:01.107Z,0.9
2018-05-10T20:29:01.096Z,0.8
2018-05-10T20:30:01.206Z,0.7
2018-05-10T20:31:01.103Z,0.6
2018-05-10T20:32:01.139Z,0.5
2018-05-10T20:34:01.065Z,0.4
2018-05-10T20:35:01.249Z,0.3
2018-05-10T20:37:01.094Z,0.2
2018-05-10T20:38:06.108Z,0.1
